createdAt,value
2023-01-28T00:00:48.594Z,15.07
2023-01-28T00:05:42.724Z,16.90
2023-01-28T00:10:36.156Z,17.63
2023-01-28T00:15:30.752Z,15.27
2023-01-28T00:20:24.760Z,15.88
2023-01-28T00:25:17.440Z,14.63
2023-01-28T00:30:12.948Z,17.67
2023-01-28T00:35:07.109Z,15.82
2023-01-28T00:39:59.908Z,16.70
2023-01-28T00:44:53.994Z,15.52
2023-01-28T00:49:46.687Z,14.57
2023-01-28T00:54:40.037Z,14.63
2023-01-28T00:59:33.811Z,15.95
2023-01-28T01:04:29.063Z,15.85
2023-01-28T01:09:23.334Z,18.60
2023-01-28T01:14:16.106Z,12.10
2023-01-28T01:19:09.751Z,17.95
2023-01-28T01:24:02.894Z,15.63
2023-01-28T01:28:55.588Z,15.63
2023-01-28T01:33:50.258Z,16.75
2023-01-28T01:38:43.268Z,13.98
2023-01-28T01:44:06.068Z,17.08
2023-01-28T01:49:14.939Z,13.27
2023-01-28T01:54:09.727Z,16.50
2023-01-28T01:59:02.940Z,14.25
2023-01-28T02:04:24.049Z,16.33
2023-01-28T02:09:25.236Z,13.57
2023-01-28T02:14:30.526Z,17.90
2023-01-28T02:19:28.434Z,13.00
2023-01-28T02:24:39.026Z,13.18
2023-01-28T02:30:06.452Z,17.60
2023-01-28T02:35:19.504Z,15.82
2023-01-28T02:41:05.822Z,13.43
2023-01-28T02:46:18.463Z,25.20
2023-01-28T02:51:25.796Z,14.70
2023-01-28T02:56:34.019Z,16.50
2023-01-28T03:06:39.680Z,15.68
2023-01-28T03:11:55.107Z,18.92
2023-01-28T03:17:27.271Z,14.07
2023-01-28T03:22:57.905Z,12.75
2023-01-28T03:28:30.341Z,12.70
2023-01-28T03:33:45.472Z,12.93
2023-01-28T03:38:59.007Z,13.13
2023-01-28T03:43:53.477Z,11.95
2023-01-28T03:48:47.510Z,17.83
2023-01-28T03:53:41.766Z,19.77
2023-01-28T03:58:54.815Z,13.55
2023-01-28T04:03:49.271Z,17.08
2023-01-28T04:08:53.766Z,18.17
2023-01-28T04:13:53.777Z,15.65
2023-01-28T04:18:49.391Z,16.02
2023-01-28T04:23:42.692Z,18.10
2023-01-28T04:28:38.962Z,20.30
2023-01-28T04:33:32.000Z,23.02
2023-01-28T04:38:44.973Z,25.83
2023-01-28T04:43:54.818Z,20.90
2023-01-28T04:49:14.253Z,20.40
2023-01-28T04:54:25.737Z,21.48
2023-01-28T04:59:24.527Z,24.00
2023-01-28T05:04:18.641Z,23.30
2023-01-28T05:09:12.469Z,21.10
2023-01-28T05:14:06.870Z,19.77
2023-01-28T05:19:07.358Z,20.95
2023-01-28T05:24:07.534Z,19.05
2023-01-28T05:29:01.141Z,23.85
2023-01-28T05:33:54.069Z,26.13
2023-01-28T05:38:49.190Z,18.88
2023-01-28T05:43:42.778Z,18.08
2023-01-28T05:48:53.220Z,17.73
2023-01-28T05:54:15.611Z,16.42
2023-01-28T05:59:11.923Z,17.88
2023-01-28T06:04:07.775Z,18.77
2023-01-28T06:09:01.927Z,19.17
2023-01-28T06:13:57.866Z,17.17
2023-01-28T06:18:55.044Z,21.50
2023-01-28T06:23:48.608Z,20.52
2023-01-28T06:28:42.042Z,17.13
2023-01-28T06:33:35.543Z,21.15
2023-01-28T06:38:28.417Z,18.88
2023-01-28T06:43:21.812Z,20.25
2023-01-28T06:48:15.702Z,21.10
2023-01-28T06:53:09.698Z,20.73
2023-01-28T06:58:03.361Z,17.25
2023-01-28T07:02:57.477Z,20.08
2023-01-28T07:07:51.666Z,22.02
2023-01-28T07:12:45.955Z,25.48
2023-01-28T07:17:42.836Z,24.33
2023-01-28T07:22:36.002Z,21.42
2023-01-28T07:27:29.800Z,19.98
2023-01-28T07:32:24.061Z,29.70
2023-01-28T07:37:18.027Z,17.02
2023-01-28T07:42:11.175Z,25.40
2023-01-28T07:47:12.270Z,22.27
2023-01-28T07:52:06.177Z,18.73
2023-01-28T07:57:00.359Z,16.90
2023-01-28T08:01:55.192Z,18.55
2023-01-28T08:06:48.404Z,17.00
2023-01-28T08:11:41.256Z,21.08
2023-01-28T08:16:34.737Z,20.23
2023-01-28T08:21:28.575Z,19.05
2023-01-28T08:26:22.629Z,20.40
2023-01-28T08:31:15.642Z,22.33
2023-01-28T08:36:10.596Z,22.67
2023-01-28T08:41:04.538Z,22.23
2023-01-28T08:45:58.023Z,23.88
2023-01-28T08:50:51.682Z,24.65
2023-01-28T08:55:46.498Z,22.50
2023-01-28T09:00:40.001Z,23.15
2023-01-28T09:05:34.927Z,20.30
2023-01-28T09:10:29.038Z,20.75
2023-01-28T09:15:21.948Z,18.88
2023-01-28T09:20:16.310Z,18.60
2023-01-28T09:25:10.458Z,24.85
2023-01-28T09:30:04.464Z,29.45
2023-01-28T09:34:58.510Z,26.17
2023-01-28T09:39:52.430Z,21.35
2023-01-28T09:45:02.651Z,21.85
2023-01-28T09:49:58.277Z,19.80
2023-01-28T09:55:05.713Z,21.85
2023-01-28T10:00:03.408Z,17.02
2023-01-28T10:05:03.592Z,19.15
2023-01-28T10:09:55.960Z,19.23
2023-01-28T10:15:20.032Z,19.13
2023-01-28T10:20:13.604Z,16.67
2023-01-28T10:25:08.873Z,15.55
2023-01-28T10:30:20.781Z,17.75
2023-01-28T10:35:15.056Z,15.98
2023-01-28T10:40:14.714Z,20.65
2023-01-28T10:45:09.468Z,22.38
2023-01-28T10:50:02.558Z,19.55
2023-01-28T10:55:22.436Z,18.20
2023-01-28T11:00:25.570Z,18.27
2023-01-28T11:05:23.160Z,18.13
2023-01-28T11:10:28.087Z,16.70
2023-01-28T11:15:21.208Z,19.92
2023-01-28T11:20:22.038Z,20.77
2023-01-28T11:25:36.023Z,21.45
2023-01-28T11:30:42.258Z,20.70
2023-01-28T11:35:35.744Z,17.90
2023-01-28T11:40:28.552Z,24.20
2023-01-28T11:45:45.044Z,193.65
2023-01-28T11:50:51.215Z,174.82
2023-01-28T11:56:11.226Z,44.83
2023-01-28T12:01:13.683Z,35.28
2023-01-28T12:06:23.248Z,21.20
2023-01-28T12:11:48.622Z,18.08
2023-01-28T12:16:59.932Z,20.52
2023-01-28T12:22:40.384Z,19.05
2023-01-28T12:27:36.837Z,19.23
2023-01-28T12:32:51.058Z,21.90
2023-01-28T12:37:55.928Z,19.25
2023-01-28T12:43:03.554Z,20.42
2023-01-28T12:48:25.604Z,18.60
2023-01-28T12:53:22.702Z,21.70
2023-01-28T12:58:19.355Z,19.08
2023-01-28T13:03:28.799Z,19.33
2023-01-28T13:08:26.719Z,25.77
2023-01-28T13:13:29.714Z,21.25
2023-01-28T13:18:34.616Z,21.60
2023-01-28T13:23:44.801Z,20.08
2023-01-28T13:28:37.847Z,22.90
2023-01-28T13:33:33.819Z,21.15
2023-01-28T13:38:27.559Z,21.95
2023-01-28T13:43:37.699Z,22.75
2023-01-28T13:48:34.383Z,16.05
2023-01-28T13:54:09.568Z,22.70
2023-01-28T13:59:29.314Z,19.70
2023-01-28T14:04:40.524Z,21.52
2023-01-28T14:10:05.864Z,22.73
2023-01-28T14:15:23.325Z,22.65
2023-01-28T14:20:38.605Z,25.80
2023-01-28T14:25:42.111Z,24.63
2023-01-28T14:30:57.112Z,19.40
2023-01-28T14:35:57.244Z,20.52
2023-01-28T14:40:52.931Z,19.52
2023-01-28T14:45:51.762Z,19.35
2023-01-28T14:51:37.321Z,17.08
2023-01-28T14:57:09.025Z,21.30
2023-01-28T15:02:05.174Z,18.70
2023-01-28T15:07:03.808Z,20.95
2023-01-28T15:11:58.996Z,21.63
2023-01-28T15:16:52.566Z,20.77
2023-01-28T15:21:47.061Z,17.95
2023-01-28T15:26:41.559Z,18.65
2023-01-28T15:31:43.427Z,21.23
2023-01-28T15:36:44.896Z,18.80
2023-01-28T15:41:47.418Z,21.45
2023-01-28T15:46:44.812Z,21.70
2023-01-28T15:51:42.256Z,20.83
2023-01-28T15:56:38.706Z,21.23
2023-01-28T16:01:40.614Z,19.55
2023-01-28T16:06:44.257Z,22.33
2023-01-28T16:11:45.014Z,23.58
2023-01-28T16:16:39.257Z,18.50
2023-01-28T16:21:38.959Z,21.55
2023-01-28T16:26:35.245Z,30.92
2023-01-28T16:31:28.071Z,18.75
2023-01-28T16:36:21.557Z,18.30
2023-01-28T16:41:26.513Z,23.95
2023-01-28T16:46:19.360Z,21.67
2023-01-28T16:51:18.347Z,25.08
2023-01-28T16:56:44.046Z,24.23
2023-01-28T17:02:18.349Z,19.83
2023-01-28T17:07:30.650Z,21.15
2023-01-28T17:12:24.503Z,19.98
2023-01-28T17:17:17.024Z,19.55
2023-01-28T17:22:11.517Z,24.23
2023-01-28T17:27:06.496Z,18.67
2023-01-28T17:31:59.372Z,19.98
2023-01-28T17:36:53.016Z,24.45
2023-01-28T17:41:46.721Z,18.63
2023-01-28T17:46:40.642Z,23.98
2023-01-28T17:51:34.777Z,24.90
2023-01-28T17:56:29.661Z,22.83
2023-01-28T18:01:24.458Z,18.50
2023-01-28T18:06:18.723Z,21.42
2023-01-28T18:11:15.357Z,19.80
2023-01-28T18:16:10.169Z,21.30
2023-01-28T18:21:06.018Z,20.80
2023-01-28T18:26:00.292Z,32.67
2023-01-28T18:30:52.901Z,19.92
2023-01-28T18:35:47.604Z,35.15
2023-01-28T18:40:46.580Z,32.33
2023-01-28T18:45:41.314Z,28.50
2023-01-28T18:50:34.580Z,30.52
2023-01-28T18:55:27.598Z,33.33
2023-01-28T19:00:22.172Z,35.47
2023-01-28T19:05:17.964Z,47.47
2023-01-28T19:10:11.633Z,48.70
2023-01-28T19:15:03.975Z,56.83
2023-01-28T19:19:57.459Z,42.13
2023-01-28T19:24:49.845Z,37.65
2023-01-28T19:29:44.105Z,47.60
2023-01-28T19:34:37.081Z,42.90
2023-01-28T19:39:32.111Z,43.15
2023-01-28T19:44:24.781Z,48.95
2023-01-28T19:49:18.931Z,47.72
2023-01-28T19:54:12.945Z,43.88
2023-01-28T19:59:06.519Z,43.92
2023-01-28T20:04:01.577Z,47.63
2023-01-28T20:08:58.591Z,36.22
2023-01-28T20:13:53.235Z,39.17
2023-01-28T20:18:56.797Z,37.63
2023-01-28T20:23:51.356Z,36.17
2023-01-28T20:28:45.295Z,32.67
2023-01-28T20:33:40.172Z,43.60
2023-01-28T20:38:36.383Z,37.30
2023-01-28T20:43:30.378Z,40.95
2023-01-28T20:48:25.713Z,40.92
2023-01-28T20:53:19.094Z,47.47
2023-01-28T20:58:13.843Z,41.05
2023-01-28T21:03:07.065Z,33.92
2023-01-28T21:07:59.654Z,40.10
2023-01-28T21:12:53.076Z,36.90
2023-01-28T21:17:46.334Z,35.20
2023-01-28T21:22:39.681Z,27.58
2023-01-28T21:27:36.410Z,32.20
2023-01-28T21:32:31.074Z,28.15
2023-01-28T21:37:24.164Z,29.88
2023-01-28T21:42:18.471Z,26.70
2023-01-28T21:47:11.548Z,26.63
2023-01-28T21:52:07.492Z,36.05
2023-01-28T21:57:00.481Z,37.17
2023-01-28T22:02:00.199Z,31.00
2023-01-28T22:06:55.481Z,34.65
2023-01-28T22:11:48.484Z,34.88
2023-01-28T22:16:42.792Z,37.95
2023-01-28T22:21:41.860Z,25.63
2023-01-28T22:26:35.155Z,26.42
2023-01-28T22:31:29.172Z,29.27
2023-01-28T22:36:23.983Z,29.85
2023-01-28T22:41:24.070Z,33.22
2023-01-28T22:51:24.456Z,31.77
2023-01-28T22:56:19.194Z,46.65
2023-01-28T23:01:16.031Z,40.30
2023-01-28T23:06:09.294Z,35.67
2023-01-28T23:11:03.166Z,44.03
2023-01-28T23:16:15.591Z,31.88
2023-01-28T23:21:36.462Z,35.45
2023-01-28T23:26:30.234Z,37.40
2023-01-28T23:31:23.768Z,36.45
2023-01-28T23:36:17.046Z,40.70
2023-01-28T23:41:10.913Z,37.55
2023-01-28T23:46:04.159Z,36.42
2023-01-28T23:50:58.114Z,37.03
2023-01-28T23:55:51.631Z,33.38
